FW5162 Weather Reports


Display with metric or nautical units.
time (UTC)temp
F
wind
direction
speed
MPH
gust
MPH
rain 1hr
in
rain 24hr
in
rain mn
in
humidity
%
barometer
mb
20240229062342 40 213 4.0 8.0 0.00 0.19 0.00 86 994.6
20240229061840 40 202 5.0 9.0 0.00 0.19 0.00 86 994.5
20240229061311 40 224 4.0 9.0 0.00 0.19 0.00 86 994.6
20240229060811 40 204 4.0 7.0 0.00 0.20 0.00 86 994.5
20240229060309 40 208 3.0 7.0 0.00 0.20 0.00 86 994.7
20240229055754 40 246 4.0 7.0 0.00 0.20 0.00 86 994.7
20240229054727 40 208 4.0 6.0 0.00 0.20 0.00 86 994.6
20240229054205 40 213 4.0 7.0 0.00 0.20 0.00 85 994.6
20240229053648 40 240 4.0 8.0 0.00 0.20 0.00 85 994.7
20240229052638 40 235 3.0 8.0 0.00 0.20 0.00 85 994.8
20240229052126 40 269 4.0 8.0 0.00 0.20 0.00 86 994.9
20240229051624 40 244 5.0 9.0 0.00 0.21 0.00 85 994.8
20240229051124 40 232 4.0 9.0 0.00 0.21 0.00 85 994.8
20240229050625 40 216 4.0 8.0 0.00 0.21 0.00 85 994.9
20240229050059 40 214 4.0 8.0 0.00 0.22 0.00 85 995.0
20240229045059 40 235 5.0 9.0 0.00 0.22 0.00 85 995.0
20240229044536 40 228 5.0 10.0 0.00 0.23 0.00 85 995.0
20240229044032 40 244 5.0 10.0 0.00 0.23 0.00 85 995.0
20240229043500 40 215 4.0 7.0 0.00 0.23 0.00 86 995.1
20240229042453 40 233 6.0 10.0 0.00 0.24 0.00 86 995.1
20240229041930 40 261 6.0 11.0 0.00 0.24 0.00 86 995.2
20240229041430 40 245 5.0 11.0 0.00 0.25 0.00 87 995.2
20240229040927 40 233 5.0 10.0 0.00 0.25 0.00 87 995.4
20240229040429 40 223 5.0 9.0 0.00 0.26 0.00 87 995.3
20240229035358 39 203 4.0 7.0 0.00 0.26 0.00 86 995.3
20240229034857 39 214 4.0 8.0 0.00 0.26 0.00 85 995.3
20240229034405 40 217 4.0 8.0 0.00 0.26 0.00 85 995.3
20240229033850 40 230 4.0 10.0 0.00 0.26 0.00 84 995.4
20240229032841 41 235 4.0 11.0 0.00 0.27 0.00 84 995.5
20240229032319 41 266 5.0 11.0 0.00 0.27 0.00 84 995.5
20240229031753 42 252 5.0 11.0 0.00 0.27 0.00 84 995.5
20240229031226 41 244 4.0 9.0 0.00 0.27 0.00 85 995.7
20240229030724 41 260 4.0 8.0 0.00 0.27 0.00 85 995.7
20240229030222 41 246 5.0 9.0 0.00 0.27 0.00 85 995.7
20240229025717 42 256 5.0 10.0 0.00 0.28 0.00 85 995.7
20240229025151 41 217 4.0 10.0 0.00 0.28 0.00 86 995.8
20240229024122 41 257 3.0 7.0 0.00 0.28 0.00 86 995.8
20240229023027 41 235 3.0 5.0 0.00 0.28 0.00 86 995.8
20240229022501 41 252 3.0 7.0 0.00 0.28 0.00 86 995.9
20240229021935 41 244 3.0 7.0 0.00 0.28 0.00 85 996.1
20240229021425 42 246 3.0 8.0 0.00 0.28 0.00 85 996.1
20240229020921 42 264 3.0 8.0 0.00 0.28 0.00 86 996.1
20240229015915 42 237 3.0 8.0 0.00 0.28 0.00 86 996.2
20240229015348 42 278 3.0 7.0 0.00 0.28 0.00 86 996.2
20240229014844 42 240 2.0 5.0 0.00 0.28 0.00 87 996.3
20240229014320 42 226 2.0 5.0 0.00 0.28 0.00 86 996.3
20240229013756 42 262 2.0 4.0 0.00 0.28 0.00 86 996.4
20240229013227 42 267 2.0 6.0 0.00 0.28 0.00 86 996.4
20240229012711 42 261 3.0 6.0 0.00 0.28 0.00 86 996.4
20240229012206 42 256 3.0 6.0 0.00 0.28 0.00 85 996.3
20240229011137 43 252 3.0 6.0 0.00 0.28 0.00 85 996.3
20240229010611 43 258 4.0 9.0 0.00 0.28 0.00 85 996.5
20240229005541 44 233 5.0 9.0 0.00 0.28 0.00 85 996.4
20240229003945 44 261 4.0 8.0 0.00 0.28 0.00 86 996.4
20240229003441 44 260 5.0 8.0 0.00 0.28 0.00 86 996.5
20240229002916 44 254 5.0 10.0 0.00 0.28 0.00 85 996.5
20240229002413 44 267 6.0 13.0 0.00 0.28 0.00 85 996.3
20240229001846 44 283 7.0 13.0 0.00 0.28 0.00 85 996.3
20240229001343 44 209 7.0 13.0 0.00 0.28 0.00 86 996.3
20240229000817 44 263 6.0 12.0 0.00 0.28 0.00 86 996.3
20240229000326 44 262 5.0 10.0 0.00 0.28 0.00 85 996.3
20240228235747 44 225 4.0 10.0 0.00 0.28 0.28 85 996.3
20240228235223 45 231 6.0 12.0 0.00 0.28 0.28 85 996.4
20240228234718 45 256 7.0 13.0 0.00 0.28 0.28 85 996.5
20240228233647 45 277 7.0 15.0 0.00 0.28 0.28 85 996.6
20240228233120 45 285 7.0 16.0 0.00 0.28 0.28 85 996.8
20240228232113 46 250 8.0 16.0 0.00 0.28 0.28 86 996.6
20240228231042 46 233 9.0 18.0 0.00 0.28 0.28 86 996.6
20240228230539 46 280 8.0 18.0 0.01 0.28 0.28 85 996.6
20240228225532 46 279 9.0 16.0 0.01 0.28 0.28 85 996.7
20240228225030 47 270 10.0 18.0 0.01 0.28 0.28 86 996.6
20240228224526 47 284 9.0 18.0 0.01 0.28 0.28 86 996.4
20240228223458 47 272 9.0 17.0 0.01 0.28 0.28 87 996.5
20240228221904 47 287 10.0 18.0 0.01 0.28 0.28 86 996.6
20240228221356 47 260 9.0 17.0 0.01 0.28 0.28 86 996.7
20240228220829 48 282 6.0 13.0 0.00 0.27 0.27 87 996.7
20240228215825 48 253 3.0 9.0 0.00 0.27 0.27 87 996.7
20240228215318 47 244 3.0 11.0 0.00 0.27 0.27 87 996.6
20240228214814 48 269 4.0 11.0 0.00 0.27 0.27 86 996.7
20240228213725 48 292 7.0 14.0 0.00 0.27 0.27 86 996.7
20240228212652 48 256 6.0 12.0 0.00 0.27 0.27 87 996.7
20240228212143 48 279 7.0 12.0 0.00 0.27 0.27 87 996.7
20240228211616 48 279 6.0 12.0 0.01 0.27 0.27 87 996.7
20240228211113 48 307 6.0 12.0 0.01 0.27 0.27 87 996.9
20240228210547 48 276 7.0 14.0 0.01 0.27 0.27 87 996.8
20240228210054 48 263 7.0 15.0 0.02 0.27 0.27 87 996.8
20240228205514 48 283 8.0 15.0 0.02 0.27 0.27 87 996.8
20240228205011 48 280 8.0 17.0 0.02 0.27 0.27 87 996.7
20240228204446 48 279 6.0 17.0 0.02 0.27 0.27 87 996.9
20240228203942 48 257 6.0 14.0 0.02 0.27 0.27 87 996.7
20240228203416 48 291 7.0 13.0 0.03 0.27 0.27 88 996.8
20240228202849 48 277 9.0 17.0 0.03 0.27 0.27 88 996.9
20240228202346 48 272 9.0 17.0 0.03 0.27 0.27 88 996.8
20240228201842 48 276 11.0 22.0 0.03 0.27 0.27 89 996.8
20240228201338 49 268 12.0 22.0 0.02 0.26 0.26 89 997.0
20240228200826 49 272 10.0 20.0 0.03 0.26 0.26 90 996.9
20240228200308 51 279 8.0 20.0 0.04 0.26 0.26 91 996.7
20240228195251 51 237 8.0 14.0 0.04 0.25 0.25 92 996.4
20240228194720 51 242 8.0 14.0 0.03 0.24 0.24 92 996.3
20240228194236 51 254 7.0 14.0 0.03 0.24 0.24 92 996.6
20240228193724 52 258 7.0 12.0 0.02 0.24 0.24 92 996.4
20240228193158 52 228 7.0 12.0 0.02 0.24 0.24 92 996.7
20240228192124 52 235 7.0 14.0 0.02 0.24 0.24 92 996.7
20240228191556 52 253 6.0 12.0 0.02 0.24 0.24 92 996.8
20240228191056 52 247 5.0 9.0 0.02 0.23 0.23 91 996.7
20240228190550 52 255 5.0 9.0 0.01 0.22 0.22 91 996.8
20240228190053 52 261 6.0 13.0 0.01 0.22 0.22 91 996.7
20240228185545 52 225 7.0 14.0 0.00 0.21 0.21 91 996.7
20240228185043 52 262 7.0 14.0 0.00 0.21 0.21 91 996.9
20240228184538 52 252 6.0 13.0 0.00 0.21 0.21 91 996.9
20240228183510 52 255 8.0 15.0 0.01 0.21 0.21 92 996.9
20240228183005 52 245 9.0 18.0 0.01 0.21 0.21 92 997.1
20240228182439 52 221 9.0 15.0 0.01 0.21 0.21 92 997.0
20240228181926 53 238 8.0 15.0 0.01 0.21 0.21 93 997.0
20240228181424 53 204 7.0 14.0 0.01 0.21 0.21 93 997.1
20240228180926 53 215 5.0 11.0 0.01 0.21 0.21 92 997.1
20240228180401 53 222 6.0 11.0 0.01 0.21 0.21 92 997.1
20240228175912 53 219 6.0 11.0 0.01 0.21 0.21 92 997.4
20240228175331 53 206 6.0 12.0 0.01 0.21 0.21 92 997.3
20240228174805 53 216 8.0 15.0 0.01 0.21 0.21 92 997.3
20240228173256 53 246 8.0 13.0 0.00 0.20 0.20 92 997.3
20240228172251 53 253 8.0 18.0 0.00 0.20 0.20 92 997.5
20240228171726 53 237 9.0 19.0 0.00 0.20 0.20 92 997.5
20240228171203 53 225 10.0 19.0 0.00 0.20 0.20 92 997.7
20240228170656 53 190 10.0 17.0 0.00 0.20 0.20 92 997.7
20240228165638 53 188 10.0 16.0 0.00 0.20 0.20 91 997.6
20240228165139 53 215 10.0 17.0 0.00 0.20 0.20 91 997.9
20240228164047 54 220 9.0 16.0 0.00 0.20 0.20 91 997.8
20240228163519 54 193 9.0 17.0 0.00 0.20 0.20 91 997.7
20240228163000 54 212 8.0 17.0 0.00 0.20 0.20 91 997.8
20240228162459 54 188 10.0 18.0 0.00 0.20 0.20 90 997.8
20240228161934 54 163 10.0 18.0 0.00 0.20 0.20 90 997.9
20240228161432 54 193 9.0 18.0 0.00 0.20 0.20 89 998.0
20240228160930 54 198 10.0 15.0 0.00 0.20 0.20 89 998.1
20240228160407 55 186 10.0 17.0 0.00 0.20 0.20 89 998.1
20240228155843 55 185 8.0 17.0 0.00 0.20 0.20 89 998.3
20240228154801 55 182 7.0 15.0 0.00 0.20 0.20 89 998.5
20240228154259 55 205 8.0 15.0 0.00 0.20 0.20 89 998.6
20240228153739 55 185 9.0 15.0 0.00 0.20 0.20 89 998.7
20240228153211 55 275 9.0 15.0 0.00 0.20 0.20 89 998.8
20240228152657 55 220 9.0 18.0 0.00 0.20 0.20 88 998.9
20240228152143 55 213 8.0 18.0 0.00 0.20 0.20 88 999.0
20240228151642 55 246 9.0 15.0 0.00 0.20 0.20 88 999.1
20240228151142 55 246 8.0 15.0 0.00 0.20 0.20 88 999.2
20240228150643 55 251 9.0 18.0 0.00 0.20 0.20 88 999.3
20240228150134 55 223 9.0 19.0 0.00 0.20 0.20 88 999.5
20240228145637 55 246 9.0 18.0 0.00 0.20 0.20 88 999.5
20240228145121 55 226 10.0 18.0 0.00 0.20 0.20 88 999.5
20240228144552 55 232 9.0 18.0 0.00 0.20 0.20 88 999.6
20240228144050 55 248 10.0 21.0 0.00 0.20 0.20 89 999.7
20240228143549 55 246 11.0 21.0 0.00 0.20 0.20 89 999.7
20240228143047 55 230 10.0 19.0 0.00 0.20 0.20 89 999.8
20240228142547 55 246 10.0 20.0 0.00 0.20 0.20 89 999.9
20240228141501 54 232 11.0 22.0 0.00 0.20 0.20 89 1000.0
20240228140437 54 225 10.0 18.0 0.00 0.20 0.20 89 1000.2
20240228135923 54 216 10.0 21.0 0.00 0.20 0.20 89 1000.2
20240228135353 54 252 11.0 21.0 0.00 0.20 0.20 88 1000.2
20240228134848 54 194 11.0 21.0 0.00 0.20 0.20 88 1000.3
20240228134325 55 234 10.0 21.0 0.00 0.20 0.20 88 1000.3
20240228133826 55 250 10.0 17.0 0.00 0.20 0.20 88 1000.3
20240228133327 55 275 10.0 17.0 0.00 0.20 0.20 88 1000.5
20240228132238 55 210 9.0 19.0 0.00 0.20 0.20 88 1000.5
20240228131736 55 242 10.0 19.0 0.00 0.20 0.20 88 1000.7
20240228131233 55 227 10.0 16.0 0.00 0.20 0.20 88 1000.6
20240228130218 55 199 10.0 17.0 0.00 0.20 0.20 88 1000.5
20240228125115 55 237 9.0 21.0 0.01 0.20 0.20 89 1000.9
20240228124611 55 217 8.0 14.0 0.01 0.20 0.20 89 1001.0
20240228124040 55 250 8.0 18.0 0.01 0.21 0.20 89 1001.1
20240228122454 55 237 9.0 19.0 0.01 0.21 0.20 90 1001.4
20240228121950 55 262 9.0 18.0 0.01 0.21 0.20 91 1001.5
20240228121447 54 264 10.0 18.0 0.01 0.21 0.20 90 1001.6
20240228120943 54 229 9.0 17.0 0.01 0.21 0.20 91 1001.6
20240228115913 54 224 9.0 17.0 0.01 0.21 0.20 91 1001.7
20240228115347 54 223 9.0 16.0 0.00 0.20 0.20 91 1001.7
20240228113752 54 231 9.0 17.0 0.00 0.20 0.20 92 1001.9
20240228113227 53 239 9.0 16.0 0.00 0.20 0.20 92 1001.9
20240228112723 53 215 9.0 16.0 0.00 0.20 0.20 92 1002.1
20240228112212 53 181 10.0 19.0 0.00 0.20 0.20 92 1002.0
20240228111647 53 215 9.0 19.0 0.00 0.20 0.20 92 1002.2
20240228111119 53 186 9.0 17.0 0.00 0.20 0.20 92 1002.2
20240228110553 53 167 9.0 18.0 0.00 0.20 0.20 92 1002.2
20240228110052 54 224 9.0 18.0 0.00 0.20 0.20 92 1002.3
20240228105525 54 231 9.0 15.0 0.00 0.20 0.20 93 1002.2
20240228104514 53 200 6.0 13.0 0.00 0.20 0.20 93 1002.3
20240228103947 53 237 6.0 12.0 0.00 0.20 0.20 93 1002.3
20240228103446 53 233 6.0 12.0 0.00 0.20 0.20 93 1002.3
20240228102942 52 212 6.0 9.0 0.00 0.20 0.20 93 1002.4
20240228101347 52 192 6.0 11.0 0.00 0.20 0.20 93 1002.7
20240228100832 52 216 6.0 11.0 0.00 0.20 0.20 93 1002.8
20240228100330 52 238 6.0 11.0 0.00 0.20 0.20 93 1002.9
20240228095831 52 192 7.0 10.0 0.00 0.20 0.20 93 1002.9
20240228094240 52 216 6.0 10.0 0.00 0.20 0.20 94 1003.0
20240228093714 52 262 6.0 11.0 0.00 0.20 0.20 94 1003.1
20240228093210 51 185 7.0 14.0 0.00 0.20 0.20 94 1003.1
20240228092641 51 231 7.0 14.0 0.00 0.20 0.20 93 1003.2
20240228092117 51 239 7.0 14.0 0.01 0.20 0.20 93 1003.2
20240228091548 51 217 7.0 14.0 0.01 0.20 0.20 94 1003.2
20240228091043 51 215 7.0 12.0 0.01 0.20 0.20 94 1003.2
20240228090051 51 194 7.0 12.0 0.01 0.20 0.20 93 1003.2
20240228085512 51 207 7.0 12.0 0.02 0.20 0.20 93 1003.2
20240228084506 50 197 7.0 12.0 0.02 0.20 0.20 93 1003.3
20240228083435 50 195 6.0 11.0 0.03 0.20 0.20 93 1003.5
20240228082909 50 224 6.0 11.0 0.03 0.20 0.20 93 1003.5
20240228082403 50 206 6.0 11.0 0.04 0.20 0.20 93 1003.5
20240228081837 50 211 6.0 11.0 0.03 0.20 0.19 93 1003.5
20240228081334 50 272 6.0 11.0 0.05 0.20 0.19 93 1003.5
20240228080807 50 241 6.0 11.0 0.06 0.20 0.19 93 1003.4
20240228080303 49 237 7.0 15.0 0.06 0.20 0.19 93 1003.4
20240228075738 49 190 7.0 15.0 0.06 0.20 0.19 93 1003.2
20240228074707 49 216 7.0 10.0 0.06 0.19 0.18 93 1003.3
20240228074203 49 192 7.0 14.0 0.06 0.18 0.17 93 1003.4
20240228073637 49 256 7.0 11.0 0.06 0.17 0.17 93 1003.3
20240228073134 49 192 7.0 12.0 0.06 0.17 0.17 93 1003.0
20240228072126 49 170 8.0 13.0 0.07 0.17 0.16 92 1002.9
20240228071623 49 202 8.0 13.0 0.06 0.16 0.15 92 1002.9
20240228071117 49 200 8.0 15.0 0.06 0.15 0.14 92 1003.2
20240228070552 49 184 8.0 15.0 0.06 0.14 0.13 92 1003.3
20240228065556 49 221 7.0 11.0 0.05 0.13 0.13 92 1003.5
20240228064451 48 202 7.0 13.0 0.03 0.12 0.12 92 1003.5
20240228063947 48 196 7.0 13.0 0.04 0.12 0.11 92 1003.5
20240228063433 48 203 7.0 18.0 0.03 0.11 0.10 92 1003.5
20240228062931 48 214 8.0 18.0 0.02 0.10 0.09 92 1003.5
20240228062430 48 204 9.0 17.0 0.02 0.10 0.09 92 1003.5